LBBG Airport Information

Runway Information
Runway 04 Length 10499 ft width 148 ft
Elevation 89 ft Threshold 0 ft Heading 44
Runway 22 Length 10499 ft Width 148 ft
Elevation 121 ft Threshold 0 ft Heading 224
Airport Frequencies
Type APP Name APP Frequency 125.1 MHZ
Type ATIS Name ATIS Frequency 120.95 MHZ
Type TWR Name TWR Frequency 118 MHZ
Airport Navaids
Type VOR-DME Name Burgas Frequency 112000 KHZ
Type NDB Name Burgas Frequency 356 KHZ
Airport Weather Information & NOTAM
ADDS - METARS form results

(1116 UTC 21 May 2019)
Data provider http://aviationweather.gov/metar/data/
 
METAR text: LBBG 211100Z 12014KT 9999 FEW033CB 23/15 Q1011 NOSIG
Conditions at: LBBG (BURGAS , BG) observed 1100 UTC 21 May 2019
Temperature: 23.0°C (73°F)
Dewpoint: 15.0°C (59°F) [RH = 61%]
Pressure (altimeter): 29.85 inches Hg (1011.0 mb)
Winds: from the ESE (120 degrees) at 16 MPH (14 knots; 7.2 m/s)
Visibility: 6 or more miles (10+ km)
Ceiling: at least 12,000 feet AGL
Clouds: few clouds at 3300 feet AGL
Weather: no significant weather observed at this time

METAR text: LBBG 211030Z 12011KT 9999 FEW047 24/15 Q1011 NOSIG
Conditions at: LBBG (BURGAS , BG) observed 1030 UTC 21 May 2019
Temperature: 24.0°C (75°F)
Dewpoint: 15.0°C (59°F) [RH = 57%]
Pressure (altimeter): 29.85 inches Hg (1011.0 mb)
Winds: from the ESE (120 degrees) at 13 MPH (11 knots; 5.7 m/s)
Visibility: 6 or more miles (10+ km)
Ceiling: at least 12,000 feet AGL
Clouds: few clouds at 4700 feet AGL
Weather: no significant weather observed at this time

Forecast for: LBBG (BURGAS , BG)
Text: TAF LBBG 211100Z 2112/2212 11014KT 9999 SCT040
Forecast period: 1200 to 1900 UTC 21 May 2019
Forecast type: FROM: standard forecast or significant change
Winds: from the ESE (110 degrees) at 16 MPH (14 knots; 7.2 m/s)
Visibility: 6 or more miles 10+ km)
Ceiling: at least 12,000 feet AGL
Clouds: scattered clouds at 4000 feet AGL
Weather: no significant weather forecast for this period
Text: TEMPO 2112/2118 VRB16KT 4000 TSRA SCT030CB BKN040
Forecast period: 1200 to 1800 UTC 21 May 2019
Forecast type: TEMPORARY: The following changes expected for less than half the time period
Winds: variable direction winds at 18 MPH (16 knots; 8.2 m/s)
Visibility: 2.49 miles (4.01 km)
Ceiling: 4000 feet AGL
Clouds: scattered clouds at 3000 feet AGL
broken clouds at 4000 feet AGL
Weather: TSRA  (rain associated with thunderstorm(s))
Text: BECMG 2119/2121 28014KT
Forecast period: 1900 UTC 21 May 2019 to 1200 UTC 22 May 2019
Forecast type: BECOMING: Conditions expected to become as follows by 2100 UTC 21 May 2019
Winds: from the W (280 degrees) at 16 MPH (14 knots; 7.2 m/s)
Visibility: 6 or more miles 10+ km)
Ceiling: at least 12,000 feet AGL
Clouds: scattered clouds at 4000 feet AGL
Weather: no significant weather forecast for this period